createdAt,value
2019-06-27T00:01:23.142Z,25.70
2019-06-27T00:03:52.700Z,25.50
2019-06-27T00:06:22.194Z,25.30
2019-06-27T00:08:51.250Z,24.90
2019-06-27T00:11:20.864Z,24.70
2019-06-27T00:13:50.284Z,24.60
2019-06-27T00:16:20.618Z,24.50
2019-06-27T00:18:50.298Z,24.50
2019-06-27T00:21:19.763Z,24.60
2019-06-27T00:23:49.145Z,24.50
2019-06-27T00:26:18.635Z,24.50
2019-06-27T00:28:48.337Z,24.70
2019-06-27T00:31:17.675Z,24.70
2019-06-27T00:33:48.798Z,24.60
2019-06-27T00:36:18.181Z,24.40
2019-06-27T00:38:47.553Z,24.40
2019-06-27T00:41:17.209Z,24.50
2019-06-27T00:43:47.565Z,24.60
2019-06-27T00:46:16.843Z,24.60
2019-06-27T00:48:46.432Z,24.50
2019-06-27T00:51:15.911Z,24.50
2019-06-27T00:53:45.357Z,24.70
2019-06-27T00:56:14.882Z,24.80
2019-06-27T00:58:44.259Z,24.80
2019-06-27T01:01:13.883Z,24.80
2019-06-27T01:03:43.594Z,24.70
2019-06-27T01:06:12.372Z,24.70
2019-06-27T01:08:42.539Z,24.80
2019-06-27T01:11:12.065Z,24.70
2019-06-27T01:13:41.601Z,24.80
2019-06-27T01:16:11.294Z,24.80
2019-06-27T01:18:41.278Z,24.70
2019-06-27T01:21:10.764Z,24.70
2019-06-27T01:23:40.135Z,24.60
2019-06-27T01:26:09.996Z,24.50
2019-06-27T01:28:39.602Z,24.30
2019-06-27T01:31:09.160Z,24.30
2019-06-27T01:33:38.488Z,24.20
2019-06-27T01:36:08.442Z,24.10
2019-06-27T01:38:38.143Z,24.10
2019-06-27T01:41:07.683Z,24.10
2019-06-27T01:43:37.796Z,23.90
2019-06-27T01:46:06.957Z,23.90
2019-06-27T01:48:36.682Z,23.80
2019-06-27T01:51:06.433Z,23.70
2019-06-27T01:53:35.747Z,23.50
2019-06-27T01:56:05.452Z,23.40
2019-06-27T01:58:35.932Z,23.40
2019-06-27T02:01:06.246Z,23.30
2019-06-27T02:03:35.430Z,23.20
2019-06-27T02:06:04.707Z,23.20
2019-06-27T02:08:33.877Z,23.20
2019-06-27T02:11:02.968Z,23.20
2019-06-27T02:13:32.403Z,23.20
2019-06-27T02:16:02.692Z,23.10
2019-06-27T02:18:32.340Z,23.10
2019-06-27T02:21:02.042Z,23.10
2019-06-27T02:23:31.565Z,23.00
2019-06-27T02:26:01.184Z,23.00
2019-06-27T02:28:30.566Z,23.00
2019-06-27T02:30:59.820Z,23.00
2019-06-27T02:33:29.210Z,22.90
2019-06-27T02:35:58.841Z,22.60
2019-06-27T02:38:28.374Z,22.50
2019-06-27T02:40:58.853Z,22.40
2019-06-27T02:43:27.589Z,22.30
2019-06-27T02:45:57.234Z,22.20
2019-06-27T02:48:26.571Z,22.10
2019-06-27T02:50:56.842Z,22.10
2019-06-27T02:53:26.406Z,22.00
2019-06-27T02:55:56.493Z,21.80
2019-06-27T02:58:31.366Z,21.80
2019-06-27T03:00:55.564Z,21.60
2019-06-27T03:03:25.695Z,21.30
2019-06-27T03:05:56.011Z,21.30
2019-06-27T03:08:25.531Z,21.30
2019-06-27T03:10:54.897Z,21.30
2019-06-27T03:13:25.028Z,21.40
2019-06-27T03:15:54.751Z,21.40
2019-06-27T03:18:24.536Z,21.30
2019-06-27T03:20:53.967Z,21.20
2019-06-27T03:23:23.383Z,21.20
2019-06-27T03:25:53.004Z,21.30
2019-06-27T03:28:22.551Z,21.20
2019-06-27T03:30:51.941Z,21.20
2019-06-27T03:33:21.544Z,21.20
2019-06-27T03:35:51.058Z,21.20
2019-06-27T03:38:20.437Z,21.10
2019-06-27T03:40:51.326Z,21.10
2019-06-27T03:43:20.851Z,21.00
2019-06-27T03:45:50.451Z,21.00
2019-06-27T03:48:20.125Z,20.90
2019-06-27T03:50:49.662Z,20.90
2019-06-27T03:53:19.027Z,20.90
2019-06-27T03:55:48.344Z,20.80
2019-06-27T03:58:17.768Z,20.70
2019-06-27T04:00:48.410Z,20.60
2019-06-27T04:03:17.893Z,20.50
2019-06-27T04:05:47.849Z,20.30
2019-06-27T04:08:17.479Z,20.30
2019-06-27T04:10:46.852Z,20.20
2019-06-27T04:13:16.357Z,20.10
2019-06-27T04:15:45.763Z,19.90
2019-06-27T04:18:15.225Z,19.80
2019-06-27T04:20:44.935Z,19.60
2019-06-27T04:23:14.237Z,19.50
2019-06-27T04:25:43.679Z,19.30
2019-06-27T04:28:13.381Z,19.20
2019-06-27T04:30:42.705Z,19.10
2019-06-27T04:33:12.042Z,19.00
2019-06-27T04:35:41.310Z,18.90
2019-06-27T04:38:10.606Z,18.80
2019-06-27T04:40:39.894Z,18.70
2019-06-27T04:43:09.628Z,18.60
2019-06-27T04:45:39.197Z,18.50
2019-06-27T04:48:08.897Z,18.40
2019-06-27T04:50:38.744Z,18.30
2019-06-27T04:53:08.263Z,18.30
2019-06-27T04:55:37.449Z,18.30
2019-06-27T04:58:06.857Z,18.20
2019-06-27T05:00:37.365Z,18.20
2019-06-27T05:03:06.702Z,18.10
2019-06-27T05:05:35.962Z,18.00
2019-06-27T05:08:05.405Z,18.00
2019-06-27T05:10:35.143Z,17.90
2019-06-27T05:13:04.477Z,17.80
2019-06-27T05:15:34.866Z,17.70
2019-06-27T05:18:04.333Z,17.70
2019-06-27T05:20:33.823Z,17.70
2019-06-27T05:23:04.347Z,17.70
2019-06-27T05:25:33.947Z,17.70
2019-06-27T05:28:03.401Z,17.60
2019-06-27T05:30:32.532Z,17.60
2019-06-27T05:33:02.229Z,17.50
2019-06-27T05:35:31.583Z,17.50
2019-06-27T05:38:00.972Z,17.50
2019-06-27T05:40:30.036Z,17.50
2019-06-27T05:42:59.450Z,17.40
2019-06-27T05:45:29.919Z,17.20
2019-06-27T05:47:59.355Z,17.20
2019-06-27T05:50:28.590Z,17.10
2019-06-27T05:52:58.012Z,17.10
2019-06-27T05:55:27.618Z,17.10
2019-06-27T05:57:57.317Z,17.10
2019-06-27T06:00:29.000Z,17.00
2019-06-27T06:02:56.219Z,17.00
2019-06-27T06:05:25.607Z,17.00
2019-06-27T06:07:56.329Z,16.90
2019-06-27T06:10:25.635Z,16.90
2019-06-27T06:12:55.137Z,16.90
2019-06-27T06:15:24.498Z,16.90
2019-06-27T06:17:53.867Z,16.90
2019-06-27T06:20:23.338Z,16.80
2019-06-27T06:22:52.689Z,16.80
2019-06-27T06:25:21.984Z,16.80
2019-06-27T06:27:51.564Z,16.90
2019-06-27T06:30:21.586Z,16.90
2019-06-27T06:32:51.104Z,16.90
2019-06-27T06:35:20.408Z,16.90
2019-06-27T06:37:49.776Z,16.90
2019-06-27T06:40:19.285Z,16.90
2019-06-27T06:42:48.733Z,16.90
2019-06-27T06:45:18.269Z,16.90
2019-06-27T06:47:49.050Z,16.80
2019-06-27T06:50:18.725Z,16.90
2019-06-27T06:52:48.183Z,16.80
2019-06-27T06:55:17.685Z,16.80
2019-06-27T06:57:46.847Z,16.80
2019-06-27T07:00:16.192Z,16.80
2019-06-27T07:02:45.644Z,16.80
2019-06-27T07:05:14.851Z,16.80
2019-06-27T07:07:43.935Z,16.80
2019-06-27T07:10:14.210Z,16.80
2019-06-27T07:12:43.748Z,16.70
2019-06-27T07:15:13.296Z,16.80
2019-06-27T07:17:43.117Z,16.80
2019-06-27T07:20:13.045Z,16.80
2019-06-27T07:22:42.306Z,16.70
2019-06-27T07:25:12.468Z,16.80
2019-06-27T07:27:41.736Z,16.70
2019-06-27T07:30:12.272Z,16.70
2019-06-27T07:32:41.562Z,16.70
2019-06-27T07:35:12.167Z,16.70
2019-06-27T07:37:41.621Z,16.70
2019-06-27T07:40:10.988Z,16.70
2019-06-27T07:42:40.518Z,16.70
2019-06-27T07:45:09.830Z,16.70
2019-06-27T07:47:39.412Z,16.70
2019-06-27T07:50:09.454Z,16.70
2019-06-27T07:52:39.924Z,16.60
2019-06-27T07:55:09.417Z,16.60
2019-06-27T07:57:38.920Z,16.60
2019-06-27T08:00:08.319Z,16.60
2019-06-27T08:02:37.755Z,16.60
2019-06-27T08:05:08.496Z,16.50
2019-06-27T08:07:38.844Z,16.60
2019-06-27T08:10:09.023Z,16.50
2019-06-27T08:12:42.124Z,16.50
2019-06-27T08:15:09.313Z,16.50
2019-06-27T08:17:38.820Z,16.50
2019-06-27T08:20:08.361Z,16.50
2019-06-27T08:22:37.610Z,16.50
2019-06-27T08:25:07.417Z,16.50
2019-06-27T08:27:37.908Z,16.50
2019-06-27T08:30:08.985Z,16.50
2019-06-27T08:32:38.689Z,16.50
2019-06-27T08:35:08.295Z,16.50
2019-06-27T08:37:37.590Z,16.50
2019-06-27T08:40:07.223Z,16.50
2019-06-27T08:42:36.648Z,16.50
2019-06-27T08:45:06.251Z,16.50
2019-06-27T08:47:35.892Z,16.50
2019-06-27T08:50:06.312Z,16.50
2019-06-27T08:52:41.573Z,16.50
2019-06-27T08:55:10.999Z,16.50
2019-06-27T08:57:40.836Z,16.60
2019-06-27T09:00:11.427Z,16.50
2019-06-27T09:02:40.670Z,16.50
2019-06-27T09:05:10.742Z,16.60
2019-06-27T09:07:40.161Z,16.60
2019-06-27T09:10:09.630Z,16.50
2019-06-27T09:12:39.219Z,16.50
2019-06-27T09:15:08.812Z,16.50
2019-06-27T09:17:38.548Z,16.50
2019-06-27T09:20:09.608Z,16.60
2019-06-27T09:22:39.005Z,16.50
2019-06-27T09:25:08.526Z,16.50
2019-06-27T09:27:38.005Z,16.50
2019-06-27T09:30:08.723Z,16.50
2019-06-27T09:32:38.325Z,16.60
2019-06-27T09:35:08.105Z,16.60
2019-06-27T09:37:37.234Z,16.50
2019-06-27T09:40:08.870Z,16.50
2019-06-27T09:42:38.465Z,16.50
2019-06-27T09:45:07.723Z,16.50
2019-06-27T09:47:37.258Z,16.50
2019-06-27T09:50:06.829Z,16.50
2019-06-27T09:52:36.099Z,16.50
2019-06-27T09:55:07.664Z,16.50
2019-06-27T09:57:36.927Z,16.50
2019-06-27T10:00:08.471Z,16.50
2019-06-27T10:02:42.121Z,16.50
2019-06-27T10:05:07.802Z,16.50
2019-06-27T10:07:37.342Z,16.50
2019-06-27T10:10:06.912Z,16.50
2019-06-27T10:12:42.127Z,16.50
2019-06-27T10:15:09.438Z,16.50
2019-06-27T10:17:38.847Z,16.50
2019-06-27T10:20:08.648Z,16.50
2019-06-27T10:22:38.085Z,16.50
2019-06-27T10:25:07.841Z,16.50
2019-06-27T10:27:37.024Z,16.50
2019-06-27T10:30:06.654Z,16.50
2019-06-27T10:32:36.099Z,16.50
2019-06-27T10:35:05.969Z,16.50
2019-06-27T10:37:36.523Z,16.40
2019-06-27T10:40:06.427Z,16.40
2019-06-27T10:42:35.923Z,16.40
2019-06-27T10:45:05.878Z,16.40
2019-06-27T10:47:35.254Z,16.40
2019-06-27T10:50:05.134Z,16.40
2019-06-27T10:52:34.601Z,16.40
2019-06-27T10:55:04.493Z,16.40
2019-06-27T10:57:34.699Z,16.30
2019-06-27T11:00:04.898Z,16.40
2019-06-27T11:02:34.473Z,16.30
2019-06-27T11:05:03.858Z,16.30
2019-06-27T11:07:33.095Z,16.30
2019-06-27T11:10:02.556Z,16.20
2019-06-27T11:12:32.063Z,16.20
2019-06-27T11:15:01.412Z,16.20
2019-06-27T11:17:30.841Z,16.10
2019-06-27T11:20:01.046Z,16.00
2019-06-27T11:22:30.114Z,16.00
2019-06-27T11:24:59.358Z,16.00
2019-06-27T11:27:28.843Z,15.90
2019-06-27T11:29:58.349Z,15.90
2019-06-27T11:32:28.495Z,15.80
2019-06-27T11:34:58.856Z,15.80
2019-06-27T11:37:28.402Z,15.80
2019-06-27T11:39:58.682Z,15.70
2019-06-27T11:42:29.864Z,15.80
2019-06-27T11:44:58.502Z,15.70
2019-06-27T11:47:28.011Z,15.80
2019-06-27T11:49:57.505Z,15.80
2019-06-27T11:52:27.202Z,15.80
2019-06-27T11:54:57.284Z,15.80
2019-06-27T11:57:26.946Z,15.80
2019-06-27T11:59:56.767Z,15.80
2019-06-27T12:02:26.318Z,15.80
2019-06-27T12:04:56.421Z,15.70
2019-06-27T12:07:26.021Z,15.70
2019-06-27T12:09:55.271Z,15.60
2019-06-27T12:12:24.642Z,15.60
2019-06-27T12:14:54.147Z,15.60
2019-06-27T12:17:23.367Z,15.50
2019-06-27T12:19:52.431Z,15.50
2019-06-27T12:22:21.929Z,15.50
2019-06-27T12:24:51.606Z,15.50
2019-06-27T12:27:21.224Z,15.50
2019-06-27T12:29:50.428Z,15.50
2019-06-27T12:32:19.883Z,15.50
2019-06-27T12:34:49.598Z,15.50
2019-06-27T12:37:18.906Z,15.50
2019-06-27T12:39:49.192Z,15.40
2019-06-27T12:42:32.074Z,15.40
2019-06-27T12:44:48.510Z,15.40
2019-06-27T12:47:18.000Z,15.40
2019-06-27T12:50:01.418Z,15.30
2019-06-27T12:52:16.947Z,15.40
2019-06-27T12:54:46.022Z,15.40
2019-06-27T12:57:15.291Z,15.30
2019-06-27T12:59:44.572Z,15.30
2019-06-27T13:02:15.694Z,15.30
2019-06-27T13:04:44.791Z,15.30
2019-06-27T13:07:14.363Z,15.30
2019-06-27T13:09:43.721Z,15.30
2019-06-27T13:12:13.005Z,15.40
2019-06-27T13:14:42.409Z,15.40
2019-06-27T13:17:12.665Z,15.50
2019-06-27T13:19:42.087Z,15.40
2019-06-27T13:22:11.313Z,15.50
2019-06-27T13:24:40.560Z,15.50
2019-06-27T13:27:10.058Z,15.50
2019-06-27T13:29:39.398Z,15.50
2019-06-27T13:32:09.041Z,15.50
2019-06-27T13:34:40.775Z,15.50
2019-06-27T13:37:09.136Z,15.50
2019-06-27T13:39:41.409Z,15.40
2019-06-27T13:42:10.982Z,15.50
2019-06-27T13:44:40.273Z,15.50
2019-06-27T13:47:09.970Z,15.50
2019-06-27T13:49:39.550Z,15.50
2019-06-27T13:52:08.894Z,15.40
2019-06-27T13:54:37.794Z,15.40
2019-06-27T13:57:07.360Z,15.50
2019-06-27T13:59:36.678Z,15.50
2019-06-27T14:02:06.057Z,15.50
2019-06-27T14:04:35.543Z,15.60
2019-06-27T14:07:04.790Z,15.60
2019-06-27T14:09:50.867Z,15.70
2019-06-27T14:12:05.250Z,15.70
2019-06-27T14:14:34.414Z,15.70
2019-06-27T14:17:04.061Z,15.80
2019-06-27T14:19:33.423Z,15.80
2019-06-27T14:22:03.323Z,15.80
2019-06-27T14:24:32.749Z,15.80
2019-06-27T14:27:04.728Z,15.90
2019-06-27T14:29:33.418Z,15.90
2019-06-27T14:32:03.952Z,16.10
2019-06-27T14:34:33.541Z,16.00
2019-06-27T14:37:04.051Z,16.20
2019-06-27T14:39:33.478Z,16.20
2019-06-27T14:42:03.216Z,16.20
2019-06-27T14:44:32.743Z,16.20
2019-06-27T14:47:02.278Z,16.20
2019-06-27T14:49:32.169Z,16.10
2019-06-27T14:52:01.556Z,16.10
2019-06-27T14:54:30.826Z,16.10
2019-06-27T14:57:00.103Z,16.20
2019-06-27T14:59:29.497Z,16.10
2019-06-27T15:01:59.228Z,16.20
2019-06-27T15:04:29.473Z,16.50
2019-06-27T15:07:00.155Z,16.50
2019-06-27T15:09:29.693Z,16.60
2019-06-27T15:11:59.995Z,16.70
2019-06-27T15:14:29.775Z,16.60
2019-06-27T15:16:59.128Z,16.80
2019-06-27T15:19:28.994Z,16.80
2019-06-27T15:21:58.352Z,16.80
2019-06-27T15:24:27.900Z,16.80
2019-06-27T15:26:57.426Z,16.80
2019-06-27T15:29:26.962Z,16.80
2019-06-27T15:31:56.719Z,16.80
2019-06-27T15:34:26.093Z,16.80
2019-06-27T15:36:55.589Z,16.90
2019-06-27T15:39:25.165Z,17.00
2019-06-27T15:41:54.719Z,17.10
2019-06-27T15:44:24.275Z,17.00
2019-06-27T15:46:54.496Z,16.90
2019-06-27T15:49:24.890Z,16.90
2019-06-27T15:51:54.179Z,16.90
2019-06-27T15:54:23.822Z,16.90
2019-06-27T15:56:53.250Z,16.80
2019-06-27T15:59:22.921Z,16.80
2019-06-27T16:01:52.682Z,16.80
2019-06-27T16:04:32.650Z,16.60
2019-06-27T16:06:52.185Z,16.60
2019-06-27T16:09:23.985Z,16.60
2019-06-27T16:11:53.466Z,16.80
2019-06-27T16:14:24.070Z,17.00
2019-06-27T16:16:54.035Z,16.90
2019-06-27T16:19:23.620Z,16.90
2019-06-27T16:21:52.986Z,16.70
2019-06-27T16:24:22.453Z,16.70
2019-06-27T16:26:52.136Z,16.80
2019-06-27T16:29:21.809Z,16.80
2019-06-27T16:31:51.374Z,16.80
2019-06-27T16:34:21.191Z,16.70
2019-06-27T16:36:50.557Z,16.70
2019-06-27T16:39:19.783Z,16.60
2019-06-27T16:41:50.325Z,16.60
2019-06-27T16:44:19.786Z,16.60
2019-06-27T16:46:49.254Z,16.50
2019-06-27T16:49:18.809Z,16.50
2019-06-27T16:51:49.076Z,16.40
2019-06-27T16:54:18.536Z,16.40
2019-06-27T16:56:47.919Z,16.30
2019-06-27T16:59:17.708Z,16.30
2019-06-27T17:01:47.036Z,16.30
2019-06-27T17:04:16.666Z,16.40
2019-06-27T17:06:46.098Z,16.30
2019-06-27T17:09:15.634Z,16.30
2019-06-27T17:11:45.496Z,16.30
2019-06-27T17:14:15.047Z,16.40
2019-06-27T17:16:44.936Z,16.30
2019-06-27T17:19:14.738Z,16.10
2019-06-27T17:21:44.407Z,16.10
2019-06-27T17:24:14.236Z,16.20
2019-06-27T17:26:44.699Z,16.20
2019-06-27T17:29:14.279Z,16.10
2019-06-27T17:31:44.011Z,16.20
2019-06-27T17:34:14.255Z,16.20
2019-06-27T17:36:56.628Z,16.20
2019-06-27T17:39:13.995Z,16.20
2019-06-27T17:41:43.550Z,16.20
2019-06-27T17:44:14.387Z,16.20
2019-06-27T17:46:46.436Z,16.20
2019-06-27T17:49:13.842Z,16.10
2019-06-27T17:51:43.111Z,16.00
2019-06-27T17:54:12.495Z,16.00
2019-06-27T17:56:42.225Z,16.00
2019-06-27T17:59:11.736Z,16.00
2019-06-27T18:01:41.652Z,16.00
2019-06-27T18:04:11.264Z,16.00
2019-06-27T18:06:40.645Z,16.00
2019-06-27T18:09:10.650Z,16.00
2019-06-27T18:11:40.479Z,16.00
2019-06-27T18:14:12.181Z,16.00
2019-06-27T18:16:41.754Z,16.00
2019-06-27T18:19:11.332Z,16.10
2019-06-27T18:21:40.975Z,16.00
2019-06-27T18:24:10.570Z,16.00
2019-06-27T18:26:40.067Z,15.90
2019-06-27T18:29:09.497Z,15.90
2019-06-27T18:31:39.076Z,16.00
2019-06-27T18:34:08.425Z,16.00
2019-06-27T18:36:37.890Z,16.00
2019-06-27T18:39:06.969Z,16.00
2019-06-27T18:41:36.530Z,15.90
2019-06-27T18:44:05.839Z,16.00
2019-06-27T18:46:35.152Z,16.10
2019-06-27T18:49:04.599Z,16.20
2019-06-27T18:51:34.936Z,16.90
2019-06-27T18:54:04.536Z,16.80
2019-06-27T18:56:33.822Z,17.20
2019-06-27T18:59:03.253Z,17.20
2019-06-27T19:01:32.827Z,17.20
2019-06-27T19:04:02.391Z,17.20
2019-06-27T19:06:31.960Z,17.20
2019-06-27T19:09:01.365Z,17.10
2019-06-27T19:11:30.706Z,17.00
2019-06-27T19:14:00.189Z,17.30
2019-06-27T19:16:30.747Z,17.70
2019-06-27T19:19:00.618Z,18.70
2019-06-27T19:21:35.840Z,19.10
2019-06-27T19:24:05.607Z,19.20
2019-06-27T19:26:35.020Z,19.20
2019-06-27T19:29:04.553Z,19.80
2019-06-27T19:31:33.682Z,20.00
2019-06-27T19:34:03.329Z,19.80
2019-06-27T19:36:32.838Z,19.60
2019-06-27T19:39:02.693Z,19.30
2019-06-27T19:41:32.093Z,19.10
2019-06-27T19:44:02.025Z,19.10
2019-06-27T19:46:32.005Z,19.00
2019-06-27T19:49:01.299Z,18.90
2019-06-27T19:51:30.753Z,18.60
2019-06-27T19:54:00.042Z,18.40
2019-06-27T19:56:29.433Z,18.10
2019-06-27T19:58:58.692Z,17.90
2019-06-27T20:01:28.442Z,17.70
2019-06-27T20:03:58.715Z,18.00
2019-06-27T20:06:27.952Z,18.00
2019-06-27T20:08:57.042Z,18.40
2019-06-27T20:11:26.154Z,18.70
2019-06-27T20:13:55.865Z,19.00
2019-06-27T20:16:26.238Z,19.10
2019-06-27T20:18:55.911Z,19.10
2019-06-27T20:21:25.214Z,19.10
2019-06-27T20:23:55.019Z,19.10
2019-06-27T20:26:24.471Z,19.20
2019-06-27T20:28:54.055Z,19.30
2019-06-27T20:31:23.345Z,19.40
2019-06-27T20:33:52.868Z,19.30
2019-06-27T20:36:22.145Z,19.30
2019-06-27T20:38:51.569Z,19.30
2019-06-27T20:41:20.924Z,19.30
2019-06-27T20:43:50.361Z,19.10
2019-06-27T20:46:20.014Z,19.10
2019-06-27T20:48:52.979Z,19.10
2019-06-27T20:51:20.085Z,19.00
2019-06-27T20:53:49.580Z,19.10
2019-06-27T20:56:20.620Z,19.50
2019-06-27T20:58:49.950Z,19.50
2019-06-27T21:01:19.531Z,19.80
2019-06-27T21:03:49.053Z,20.10
2019-06-27T21:06:18.948Z,20.20
2019-06-27T21:08:51.468Z,20.00
2019-06-27T21:11:19.893Z,19.90
2019-06-27T21:13:50.467Z,19.70
2019-06-27T21:16:19.959Z,19.60
2019-06-27T21:18:49.662Z,19.70
2019-06-27T21:21:20.882Z,19.70
2019-06-27T21:23:52.227Z,19.70
2019-06-27T21:26:21.429Z,19.70
2019-06-27T21:28:51.259Z,19.80
2019-06-27T21:31:20.633Z,20.00
2019-06-27T21:33:50.359Z,20.10
2019-06-27T21:36:19.759Z,20.00
2019-06-27T21:38:49.004Z,20.00
2019-06-27T21:41:19.175Z,19.90
2019-06-27T21:43:48.300Z,19.80
2019-06-27T21:46:17.970Z,19.70
2019-06-27T21:48:47.532Z,20.00
2019-06-27T21:51:16.921Z,20.20
2019-06-27T21:53:46.530Z,20.30
2019-06-27T21:56:16.070Z,20.40
2019-06-27T21:58:45.302Z,20.60
2019-06-27T22:01:14.710Z,20.90
2019-06-27T22:03:44.290Z,21.10
2019-06-27T22:06:13.901Z,21.10
2019-06-27T22:08:43.524Z,21.20
2019-06-27T22:11:13.045Z,21.50
2019-06-27T22:13:42.047Z,21.70
2019-06-27T22:16:11.107Z,21.70
2019-06-27T22:18:40.555Z,21.90
2019-06-27T22:21:11.024Z,21.50
2019-06-27T22:23:41.102Z,21.50
2019-06-27T22:26:10.507Z,21.20
2019-06-27T22:28:40.024Z,21.10
2019-06-27T22:31:10.031Z,21.10
2019-06-27T22:33:39.574Z,21.10
2019-06-27T22:36:09.266Z,20.90
2019-06-27T22:38:44.418Z,20.90
2019-06-27T22:41:19.107Z,20.70
2019-06-27T22:43:56.168Z,20.50
2019-06-27T22:46:30.893Z,20.50
2019-06-27T22:49:00.146Z,20.40
2019-06-27T22:51:45.114Z,20.40
2019-06-27T22:54:14.591Z,20.40
2019-06-27T22:56:44.950Z,20.60
2019-06-27T22:59:14.197Z,20.80
2019-06-27T23:01:43.996Z,20.80
2019-06-27T23:04:13.432Z,20.80
2019-06-27T23:06:43.507Z,20.80
2019-06-27T23:09:13.409Z,20.80
2019-06-27T23:11:43.021Z,20.80
2019-06-27T23:14:12.272Z,20.90
2019-06-27T23:16:42.016Z,21.00
2019-06-27T23:19:11.704Z,21.00
2019-06-27T23:21:41.370Z,21.00
2019-06-27T23:24:11.100Z,21.00
2019-06-27T23:26:40.636Z,21.10
2019-06-27T23:29:10.329Z,21.20
2019-06-27T23:31:39.859Z,21.30
2019-06-27T23:34:09.077Z,21.40
2019-06-27T23:36:38.578Z,21.30
2019-06-27T23:39:07.869Z,21.10
2019-06-27T23:41:37.431Z,21.10
2019-06-27T23:44:06.944Z,21.10
2019-06-27T23:46:39.295Z,21.00
2019-06-27T23:49:09.236Z,21.00
2019-06-27T23:51:38.727Z,21.00
2019-06-27T23:54:08.202Z,20.90
2019-06-27T23:56:37.815Z,20.90
2019-06-27T23:59:07.259Z,20.70
